WetterOnline ( https://www.wetteronline.de )

Wetter aktuell Erdmannhausen

Aktuelles Wetter: Mühlacker (245m)

6-stündlich | Neueste Meldungen
Ortszeit Temperatur Wetter
So, 01.08. 20:00 19.8° C leicht bewölkt
So, 01.08. 14:00 20.0° C wolkig
So, 01.08. 8:00 15.0° C leichter Regen
So, 01.08. 2:00 15.1° C leichter Regen
Sa, 31.07. 20:00 21.3° C bedeckt
Sa, 31.07. 14:00 22.7° C bewölkt
Sa, 31.07. 8:00 15.8° C leicht bewölkt
Sa, 31.07. 2:00 18.0° C wolkig
Ortszeit Temperatur Wetter
So, 01.08. 20:00 19.8° C leicht bewölkt
So, 01.08. 19:50 19.8° C leicht bewölkt
So, 01.08. 19:40 19.9° C leicht bewölkt
So, 01.08. 19:30 20.1° C fast wolkenlos
So, 01.08. 19:20 20.1° C fast wolkenlos
So, 01.08. 19:10 20.5° C leicht bewölkt
So, 01.08. 19:00 20.8° C wolkig
So, 01.08. 18:30 20.5° C bewölkt
So, 01.08. 18:00 19.9° C bewölkt
So, 01.08. 17:30 19.1° C bedeckt
So, 01.08. 17:00 18.7° C bewölkt
Ortszeit Relative Feuchte Sichtweite
So, 01.08. 20:00 62% >70 km
So, 01.08. 14:00 66% 50 km
So, 01.08. 8:00 97% 13 km
So, 01.08. 2:00 93% 35 km
Sa, 31.07. 20:00 54% 50 km
Sa, 31.07. 14:00 46% 45 km
Sa, 31.07. 8:00 81% 50 km
Sa, 31.07. 2:00 79% 45 km
Ortszeit Relative Feuchte Sichtweite
So, 01.08. 20:00 62% >70 km
So, 01.08. 19:50 62% -
So, 01.08. 19:40 61% -
So, 01.08. 19:30 60% 55 km
So, 01.08. 19:20 60% -
So, 01.08. 19:10 59% -
So, 01.08. 19:00 56% >70 km
So, 01.08. 18:30 60% >70 km
So, 01.08. 18:00 59% 50 km
So, 01.08. 17:30 62% 60 km
So, 01.08. 17:00 62% >70 km
Ortszeit Niederschlagsmenge Niederschlagsart
So, 01.08. 20:00 0.1 l/m2 in 12 Std. Regen
So, 01.08. 14:00 0.1 l/m2 in 6 Std. Regen
So, 01.08. 8:00 3 l/m2 in 12 Std. Regen
So, 01.08. 2:00 0.1 l/m2 in 6 Std. Regen
Sa, 31.07. 20:00 0.0 l/m2 in 12 Std. -
Sa, 31.07. 14:00 0.0 l/m2 in 6 Std. -
Sa, 31.07. 8:00 0.1 l/m2 in 12 Std. -
Sa, 31.07. 2:00 0.1 l/m2 in 6 Std. Regen
Ortszeit Niederschlagsmenge Niederschlagsart
So, 01.08. 20:00 0.0 l/m2 in 1 Std. Regen
So, 01.08. 19:50 keine Meldung -
So, 01.08. 19:40 keine Meldung -
So, 01.08. 19:30 0.0 l/m2 in 1 Std. -
So, 01.08. 19:20 keine Meldung -
So, 01.08. 19:10 keine Meldung -
So, 01.08. 19:00 0.0 l/m2 in 1 Std. -
So, 01.08. 18:30 0.0 l/m2 in 1 Std. -
So, 01.08. 18:00 0.0 l/m2 in 1 Std. -
So, 01.08. 17:30 0.0 l/m2 in 1 Std. -
So, 01.08. 17:00 0.1 l/m2 in 1 Std. Regen
Ortszeit Stärke Spitze Richtung
km/h Bft. km/h Grad Sektor
So, 01.08. 20:00 11 2 40 260° W
So, 01.08. 14:00 11 2 22 270° W
So, 01.08. 8:00 2 1 6 80° O
So, 01.08. 2:00 0 0 18 - -
Sa, 31.07. 20:00 9 2 31 290° W
Sa, 31.07. 14:00 14 3 36 290° W
Sa, 31.07. 8:00 4 1 22 220° SW
Sa, 31.07. 2:00 6 1 24 240° SW
Ortszeit Stärke Spitze Richtung
km/h Bft. km/h Grad Sektor
So, 01.08. 20:00 11 2 29 260° W
So, 01.08. 19:50 11 2 - 260° W
So, 01.08. 19:40 11 2 - 260° W
So, 01.08. 19:30 14 3 29 240° SW
So, 01.08. 19:20 14 3 - 240° SW
So, 01.08. 19:10 15 3 - 260° W
So, 01.08. 19:00 17 3 26 260° W
So, 01.08. 18:30 13 3 24 240° SW
So, 01.08. 18:00 11 2 20 250° W
So, 01.08. 17:30 9 2 19 260° W
So, 01.08. 17:00 13 3 35 260° W
Ortszeit Untergrenze Bedeckung Gattung
total tief tief mittel hoch
So, 01.08. 20:00 5700 m 3/8 2/8 - - -
So, 01.08. 14:00 720 m 7/8 4/8 - - -
So, 01.08. 8:00 1170 m 8/8 8/8 - - -
So, 01.08. 2:00 2400 m 8/8 7/8 - - -
Sa, 31.07. 20:00 3900 m 8/8 8/8 - - -
Sa, 31.07. 14:00 1500 m 7/8 7/8 - - -
Sa, 31.07. 8:00 1230 m 3/8 3/8 - - -
Sa, 31.07. 2:00 1260 m 5/8 5/8 - - -
Ortszeit Bedeckungsgrad in Achtel und Wolkenuntergrenze
So, 01.08. 20:00 2(5700m) 3(7500m)
So, 01.08. 19:50 2(5700m) 3(7500m)
So, 01.08. 19:40 2(5700m)
So, 01.08. 19:30 2(8700m)
So, 01.08. 19:20 2(8700m)
So, 01.08. 19:10 4(8700m)
So, 01.08. 19:00 3(4500m) 4(5400m) 7(8700m)
So, 01.08. 18:30 7(2700m) 8(4200m) 8(4500m)
So, 01.08. 18:00 5(2400m) 8(3900m)
So, 01.08. 17:30 8(3900m)
So, 01.08. 17:00 4(2700m) 8(3600m)
Ortszeit Luftdruck NN (hPa) Tendenz (hPa in 3 Std.)
So, 01.08. 20:00 1011 + 0,7
So, 01.08. 14:00 1011 - 0,2
So, 01.08. 8:00 1011 + 0,5
So, 01.08. 2:00 1011 - 0,2
Sa, 31.07. 20:00 1011 - 0,2
Sa, 31.07. 14:00 1011 - 0,3
Sa, 31.07. 8:00 1012 + 0,6
Sa, 31.07. 2:00 1012 + 1,3
Ortszeit Luftdruck NN (hPa) Tendenz (hPa in 3 Std.)
So, 01.08. 20:00 1011 + 0,7
So, 01.08. 19:50 1011 keine Meldung
So, 01.08. 19:40 1011 keine Meldung
So, 01.08. 19:30 1011 + 0,2
So, 01.08. 19:20 1011 keine Meldung
So, 01.08. 19:10 1011 keine Meldung
So, 01.08. 19:00 1011 0,0
So, 01.08. 18:30 1011 + 0,2
So, 01.08. 18:00 1011 + 0,5
So, 01.08. 17:30 1011 + 0,5
So, 01.08. 17:00 1011 0,0
Ortszeit Schneehöhe (cm)
So, 01.08. 20:00 -
So, 01.08. 14:00 -
So, 01.08. 8:00 -
So, 01.08. 2:00 -
Sa, 31.07. 20:00 -
Sa, 31.07. 14:00 -
Sa, 31.07. 8:00 -
Sa, 31.07. 2:00 -
Ortszeit Schneehöhe (cm)
So, 01.08. 20:00 -
So, 01.08. 19:50 -
So, 01.08. 19:40 -
So, 01.08. 19:30 -
So, 01.08. 19:20 -
So, 01.08. 19:10 -
So, 01.08. 19:00 -
So, 01.08. 18:30 -
So, 01.08. 18:00 -
So, 01.08. 17:30 -
So, 01.08. 17:00 -
Link zu dieser Seite / Seite empfehlen

Das Wetter in ...